Time;durP1;ratioP1;P1;durP2;ratioP2;P2;SDS_P1;SDS_P2;PMS_P1;PMS_P2;Temp;Humidity;BMP_temperature;BMP_pressure;BME280_temperature;BME280_humidity;BME280_pressure;Samples;Min_cycle;Max_cycle;Signal;HPM_P1;HPM_P2
2021/07/31 00:01:05;;;;;;;6.97;3.47;;;19.20;99.90;;;;;;5011158;28;20442;-68
2021/07/31 00:03:37;;;;;;;4.73;4.23;;;19.00;99.90;;;;;;5011663;28;20940;-68
2021/07/31 00:06:07;;;;;;;5.93;4.07;;;18.90;99.90;;;;;;5010917;28;20988;-68
2021/07/31 00:08:34;;;;;;;5.63;3.87;;;18.90;99.90;;;;;;5011643;28;20446;-68
2021/07/31 00:11:07;;;;;;;4.60;3.40;;;18.90;99.90;;;;;;5009730;28;20446;-68
2021/07/31 00:13:36;;;;;;;3.60;2.80;;;18.90;99.90;;;;;;5011651;28;20439;-68
2021/07/31 00:16:04;;;;;;;4.80;2.87;;;18.90;99.90;;;;;;5010839;28;20454;-68
2021/07/31 00:18:34;;;;;;;5.20;3.00;;;19.00;99.90;;;;;;5011485;28;20853;-68
2021/07/31 00:21:01;;;;;;;5.90;3.43;;;19.00;99.90;;;;;;5010976;28;20450;-68
2021/07/31 00:23:29;;;;;;;4.77;3.50;;;19.00;99.90;;;;;;5011124;28;20454;-68
2021/07/31 00:25:57;;;;;;;3.47;3.07;;;19.00;99.90;;;;;;5010826;28;20517;-68
2021/07/31 00:28:27;;;;;;;5.20;4.50;;;19.00;99.90;;;;;;5011082;28;20842;-68
2021/07/31 00:31:00;;;;;;;4.20;3.30;;;19.00;99.90;;;;;;5010810;28;20439;-68
2021/07/31 00:33:27;;;;;;;4.53;3.30;;;19.10;99.90;;;;;;5011184;28;20515;-68
2021/07/31 00:35:55;;;;;;;5.40;3.97;;;19.10;99.90;;;;;;5010880;28;20472;-67
2021/07/31 00:38:22;;;;;;;4.27;3.10;;;19.00;99.90;;;;;;5011124;28;20496;-68
2021/07/31 00:40:50;;;;;;;4.30;3.40;;;19.00;99.90;;;;;;5010370;28;20474;-68
2021/07/31 00:43:21;;;;;;;6.50;3.37;;;18.90;99.90;;;;;;5011044;28;20491;-67
2021/07/31 00:45:53;;;;;;;4.23;3.10;;;18.80;99.90;;;;;;5010646;28;20573;-68
2021/07/31 00:48:22;;;;;;;3.93;3.20;;;18.70;99.90;;;;;;5011307;28;20856;-67
2021/07/31 00:50:53;;;;;;;4.10;3.40;;;18.70;99.90;;;;;;5010442;28;20447;-68
2021/07/31 00:53:24;;;;;;;5.00;3.33;;;18.70;99.90;;;;;;5010976;28;20917;-68
2021/07/31 00:55:54;;;;;;;4.93;3.30;;;18.60;99.90;;;;;;5010775;28;20457;-68
2021/07/31 00:58:22;;;;;;;4.57;2.90;;;18.60;99.90;;;;;;5010461;28;20523;-68
2021/07/31 01:00:51;;;;;;;3.90;3.03;;;18.60;99.90;;;;;;5010729;28;20519;-68
2021/07/31 01:03:18;;;;;;;4.87;3.00;;;18.50;99.90;;;;;;5010364;28;20441;-68
2021/07/31 01:05:47;;;;;;;5.10;3.37;;;18.50;99.90;;;;;;5010785;28;20494;-67
2021/07/31 01:08:15;;;;;;;4.67;3.30;;;18.50;99.90;;;;;;4999954;28;20443;-68
2021/07/31 01:10:42;;;;;;;7.00;4.30;;;18.50;99.90;;;;;;5010458;28;20486;-67
2021/07/31 01:13:10;;;;;;;4.83;3.50;;;18.50;99.90;;;;;;5010293;28;20496;-68
2021/07/31 01:15:54;;;;;;;6.83;3.70;;;18.40;99.90;;;;;;5010285;28;20452;-68
2021/07/31 01:18:26;;;;;;;5.00;4.10;;;18.40;99.90;;;;;;5009842;28;20451;-68
2021/07/31 01:20:55;;;;;;;7.50;4.30;;;18.40;99.90;;;;;;5010401;28;20462;-68
2021/07/31 01:23:24;;;;;;;5.60;4.20;;;18.50;99.90;;;;;;5009504;28;20439;-67
2021/07/31 01:25:57;;;;;;;5.30;4.20;;;18.50;99.90;;;;;;5010446;28;20525;-67
2021/07/31 01:28:24;;;;;;;9.13;4.60;;;18.30;99.90;;;;;;5009507;28;20838;-69
2021/07/31 01:30:56;;;;;;;4.93;3.33;;;18.40;99.90;;;;;;5010479;28;20434;-68
2021/07/31 01:33:24;;;;;;;5.43;3.70;;;18.40;99.90;;;;;;5009782;28;20515;-68
2021/07/31 01:35:51;;;;;;;5.50;3.20;;;18.40;99.90;;;;;;5001758;28;20812;-68
2021/07/31 01:38:19;;;;;;;7.20;3.50;;;18.40;99.90;;;;;;5007707;28;20485;-68
2021/07/31 01:40:48;;;;;;;4.80;3.33;;;18.40;99.90;;;;;;5010239;28;20454;-68
2021/07/31 01:43:15;;;;;;;6.00;3.83;;;18.30;99.90;;;;;;5009658;28;20500;-67
2021/07/31 01:45:42;;;;;;;4.50;3.17;;;18.30;99.90;;;;;;5009927;28;20447;-68
2021/07/31 01:48:09;;;;;;;3.93;2.70;;;18.30;99.90;;;;;;5009509;28;20484;-68
2021/07/31 01:50:39;;;;;;;6.03;3.70;;;18.30;99.90;;;;;;5010062;28;20504;-68
2021/07/31 01:53:06;;;;;;;4.07;3.27;;;18.40;99.90;;;;;;5009405;28;20821;-68
2021/07/31 01:55:35;;;;;;;4.57;3.60;;;18.30;99.90;;;;;;5009973;28;20431;-68
2021/07/31 01:58:04;;;;;;;6.00;3.60;;;18.30;99.90;;;;;;5009363;28;20442;-69
2021/07/31 02:00:32;;;;;;;6.37;3.83;;;18.20;99.90;;;;;;5009732;28;20492;-68
2021/07/31 02:03:01;;;;;;;4.20;3.53;;;18.20;99.90;;;;;;5009426;28;21000;-68
2021/07/31 02:05:29;;;;;;;4.93;4.20;;;18.20;99.90;;;;;;5009956;28;20503;-68
2021/07/31 02:07:56;;;;;;;4.60;3.30;;;18.20;99.90;;;;;;5009513;28;20475;-68
2021/07/31 02:10:26;;;;;;;5.53;3.70;;;18.20;99.90;;;;;;5010018;28;20831;-68
2021/07/31 02:12:58;;;;;;;3.80;3.30;;;18.20;99.90;;;;;;5009362;28;20454;-67
2021/07/31 02:15:27;;;;;;;6.57;3.20;;;18.10;99.90;;;;;;5009775;28;20484;-68
2021/07/31 02:17:54;;;;;;;4.60;3.90;;;18.10;99.90;;;;;;5009300;28;20517;-68
2021/07/31 02:20:22;;;;;;;6.03;3.90;;;18.00;99.90;;;;;;5009797;28;20478;-68
2021/07/31 02:22:49;;;;;;;5.13;3.07;;;18.00;99.90;;;;;;5008824;28;20507;-67
2021/07/31 02:25:17;;;;;;;5.80;3.60;;;17.90;99.90;;;;;;5009314;28;21247;-68
2021/07/31 02:27:45;;;;;;;7.60;3.47;;;17.90;99.90;;;;;;5009268;28;20534;-68
2021/07/31 02:30:13;;;;;;;6.33;3.47;;;17.90;99.90;;;;;;5009228;28;20532;-68
2021/07/31 02:32:42;;;;;;;4.40;4.00;;;18.00;99.90;;;;;;5009029;28;20447;-67
2021/07/31 02:35:10;;;;;;;4.40;3.80;;;18.10;99.90;;;;;;5011873;28;20485;-69
2021/07/31 02:37:38;;;;;;;6.30;3.63;;;18.20;99.90;;;;;;5012572;28;20503;-68
2021/07/31 02:40:07;;;;;;;4.70;3.57;;;18.20;99.90;;;;;;5012783;28;20482;-68
2021/07/31 02:42:34;;;;;;;5.40;3.10;;;18.30;99.90;;;;;;5012661;28;20435;-68
2021/07/31 02:45:07;;;;;;;5.40;2.80;;;18.30;99.90;;;;;;5012682;28;20439;-68
2021/07/31 02:47:37;;;;;;;3.80;2.90;;;18.30;99.90;;;;;;5012167;28;20533;-68
2021/07/31 02:50:07;;;;;;;4.10;3.00;;;18.30;99.90;;;;;;5012615;28;20438;-68
2021/07/31 02:52:34;;;;;;;4.13;3.23;;;18.30;99.90;;;;;;5012496;28;20426;-68
2021/07/31 02:55:06;;;;;;;3.50;3.03;;;18.40;99.90;;;;;;5012451;28;21083;-68
2021/07/31 02:57:33;;;;;;;7.60;4.10;;;18.40;99.90;;;;;;5012643;28;20793;-68
2021/07/31 03:00:01;;;;;;;4.37;3.37;;;18.40;99.90;;;;;;5011922;28;20796;-68
2021/07/31 03:02:28;;;;;;;5.07;3.63;;;18.40;99.90;;;;;;5012132;28;20435;-68
2021/07/31 03:04:57;;;;;;;4.00;3.00;;;18.40;99.90;;;;;;5012659;28;20485;-67
2021/07/31 03:07:26;;;;;;;4.93;3.60;;;18.50;99.90;;;;;;5012057;28;20478;-67
2021/07/31 03:09:53;;;;;;;5.73;3.20;;;18.50;99.90;;;;;;5012512;28;20454;-67
2021/07/31 03:12:32;;;;;;;5.93;2.90;;;18.50;99.90;;;;;;5012220;28;20535;-68
2021/07/31 03:15:03;;;;;;;5.40;3.60;;;18.50;99.90;;;;;;5012369;28;20438;-69
2021/07/31 03:17:36;;;;;;;5.87;3.47;;;18.50;99.90;;;;;;5011680;28;20468;-69
2021/07/31 03:20:03;;;;;;;4.70;3.50;;;18.50;99.90;;;;;;5012425;28;20867;-68
2021/07/31 03:22:32;;;;;;;4.87;3.77;;;18.50;99.90;;;;;;5011958;28;20563;-68
2021/07/31 03:25:02;;;;;;;5.27;4.30;;;18.50;99.90;;;;;;5012399;28;20843;-67
2021/07/31 03:27:29;;;;;;;11.37;3.30;;;18.50;99.90;;;;;;5011443;28;20486;-68
2021/07/31 03:29:58;;;;;;;5.00;3.80;;;18.50;99.90;;;;;;5011927;28;20498;-68
2021/07/31 03:32:26;;;;;;;5.07;3.80;;;18.60;99.90;;;;;;5011971;28;20439;-68
2021/07/31 03:34:53;;;;;;;4.30;3.30;;;18.50;99.90;;;;;;4992610;28;20440;-68
2021/07/31 03:37:21;;;;;;;4.50;2.87;;;18.50;99.90;;;;;;4992577;28;20446;-68
2021/07/31 03:39:53;;;;;;;5.30;2.80;;;18.50;99.90;;;;;;5010991;28;20519;-67
2021/07/31 03:42:20;;;;;;;4.63;3.33;;;18.60;99.90;;;;;;5012091;28;20445;-68
2021/07/31 03:44:48;;;;;;;6.07;4.20;;;18.50;99.90;;;;;;5011049;28;20530;-68
2021/07/31 03:47:16;;;;;;;6.30;3.50;;;18.60;99.90;;;;;;5011558;28;20525;-68
2021/07/31 03:49:45;;;;;;;6.50;3.30;;;18.60;99.90;;;;;;5011509;28;20556;-68
2021/07/31 03:52:13;;;;;;;8.10;2.90;;;18.70;99.90;;;;;;5011597;28;20438;-70
2021/07/31 03:54:40;;;;;;;4.90;3.53;;;18.70;99.90;;;;;;5011538;28;20443;-68
2021/07/31 03:57:11;;;;;;;6.30;3.00;;;18.70;99.90;;;;;;5011176;28;20461;-68
2021/07/31 03:59:40;;;;;;;5.47;2.87;;;18.70;99.90;;;;;;5011294;28;20447;-67
2021/07/31 04:02:13;;;;;;;4.10;3.00;;;18.70;99.90;;;;;;5011730;28;20945;-68
2021/07/31 04:04:42;;;;;;;5.43;3.57;;;18.70;99.90;;;;;;5011576;28;20484;-68
2021/07/31 04:07:10;;;;;;;5.17;3.53;;;18.80;99.90;;;;;;5011688;28;20518;-68
2021/07/31 04:09:41;;;;;;;4.00;3.07;;;18.80;99.90;;;;;;5011171;28;20467;-68
2021/07/31 04:12:10;;;;;;;3.97;3.43;;;18.70;99.90;;;;;;5011672;28;20442;-68
2021/07/31 04:14:43;;;;;;;3.33;2.50;;;18.70;99.90;;;;;;5011486;28;20447;-68
2021/07/31 04:17:15;;;;;;;4.87;3.50;;;18.70;99.90;;;;;;5011692;28;20529;-67
2021/07/31 04:19:43;;;;;;;5.20;3.30;;;18.70;99.90;;;;;;5011306;28;20454;-68
2021/07/31 04:22:10;;;;;;;3.70;3.00;;;18.80;99.90;;;;;;5011667;28;20447;-68
2021/07/31 04:24:38;;;;;;;4.17;3.23;;;18.80;99.90;;;;;;4998648;28;20443;-67
2021/07/31 04:27:06;;;;;;;5.40;3.37;;;18.70;99.90;;;;;;4991879;28;20980;-68
2021/07/31 04:29:35;;;;;;;4.40;3.60;;;18.70;99.90;;;;;;5006324;28;20490;-68
2021/07/31 04:32:02;;;;;;;4.30;3.30;;;18.70;99.90;;;;;;5011352;28;20498;-68
2021/07/31 04:34:35;;;;;;;5.63;3.60;;;18.70;99.90;;;;;;5011014;28;20500;-69
2021/07/31 04:37:04;;;;;;;6.40;5.80;;;18.70;99.90;;;;;;5011302;28;20810;-68
2021/07/31 04:39:38;;;;;;;3.50;2.93;;;18.80;99.90;;;;;;5010840;28;20439;-68
2021/07/31 04:42:05;;;;;;;3.57;2.70;;;18.80;99.90;;;;;;5011144;28;20534;-67
2021/07/31 04:44:34;;;;;;;3.90;3.20;;;18.80;99.90;;;;;;5010578;28;21005;-68
2021/07/31 04:47:07;;;;;;;5.00;2.63;;;18.80;99.90;;;;;;5011004;28;20474;-68
2021/07/31 04:49:36;;;;;;;3.80;3.00;;;18.90;99.90;;;;;;5010697;28;20482;-68
2021/07/31 04:52:09;;;;;;;5.30;3.30;;;18.90;99.90;;;;;;5010804;28;20443;-67
2021/07/31 04:54:40;;;;;;;4.00;2.83;;;18.90;99.90;;;;;;5010940;28;20442;-68
2021/07/31 04:57:09;;;;;;;4.63;3.10;;;18.90;99.90;;;;;;5010220;28;20442;-68
2021/07/31 04:59:38;;;;;;;4.07;3.17;;;18.90;99.90;;;;;;5010464;28;20789;-68
2021/07/31 05:02:05;;;;;;;4.20;3.10;;;18.90;99.90;;;;;;5010946;28;20443;-68
2021/07/31 05:04:32;;;;;;;2.77;2.03;;;18.90;99.90;;;;;;5010503;28;20431;-68
2021/07/31 05:07:01;;;;;;;3.87;2.93;;;18.90;99.90;;;;;;5010035;28;20863;-68
2021/07/31 05:09:34;;;;;;;3.80;2.90;;;19.00;99.90;;;;;;5060082;28;20463;-68
2021/07/31 05:12:01;;;;;;;4.50;3.17;;;19.00;99.90;;;;;;5093191;28;20546;-68
2021/07/31 05:14:37;;;;;;;3.40;2.77;;;19.10;99.90;;;;;;5010826;28;20453;-68
2021/07/31 05:17:16;;;;;;;5.80;3.00;;;19.10;99.90;;;;;;5010491;28;20922;-68
2021/07/31 05:19:43;;;;;;;7.33;3.13;;;19.10;99.90;;;;;;5010076;28;20439;-68
2021/07/31 05:22:26;;;;;;;4.40;3.50;;;19.20;99.90;;;;;;5009938;28;20529;-67
2021/07/31 05:24:54;;;;;;;4.60;3.27;;;19.20;99.90;;;;;;5009275;28;20785;-68
2021/07/31 05:27:21;;;;;;;5.33;3.80;;;19.20;99.90;;;;;;5010854;28;20487;-69
2021/07/31 05:29:50;;;;;;;4.53;2.90;;;19.20;99.90;;;;;;5010452;28;20462;-68
2021/07/31 05:32:27;;;;;;;3.70;2.60;;;19.20;99.90;;;;;;5010583;28;20851;-68
2021/07/31 05:34:55;;;;;;;3.37;2.50;;;19.20;99.90;;;;;;5010201;28;20511;-68
2021/07/31 05:37:23;;;;;;;4.73;2.67;;;19.20;99.90;;;;;;5010732;28;20447;-68
2021/07/31 05:39:50;;;;;;;4.77;3.37;;;19.20;99.90;;;;;;5010647;28;20439;-68
2021/07/31 05:42:19;;;;;;;4.93;3.27;;;19.20;99.90;;;;;;5010390;28;20486;-68
2021/07/31 05:44:54;;;;;;;5.83;3.50;;;19.20;99.90;;;;;;5009676;28;20504;-68
2021/07/31 05:47:24;;;;;;;4.50;3.40;;;19.30;99.90;;;;;;5010910;28;20542;-68
2021/07/31 05:49:53;;;;;;;5.03;4.07;;;19.30;99.90;;;;;;5010736;28;20534;-68
2021/07/31 05:52:26;;;;;;;4.93;3.10;;;19.30;99.90;;;;;;5009916;28;20522;-69
2021/07/31 05:54:53;;;;;;;6.20;3.87;;;19.30;99.90;;;;;;5010613;28;20530;-68
2021/07/31 05:57:25;;;;;;;4.53;3.33;;;19.40;99.90;;;;;;5010365;28;20483;-68
2021/07/31 05:59:52;;;;;;;4.30;3.50;;;19.40;99.90;;;;;;5010649;28;20530;-68
2021/07/31 06:02:23;;;;;;;5.17;3.40;;;19.40;99.90;;;;;;5010542;28;20864;-68
2021/07/31 06:04:50;;;;;;;5.10;3.00;;;19.40;99.90;;;;;;5010522;28;20525;-67
2021/07/31 06:07:18;;;;;;;5.50;3.73;;;19.40;99.90;;;;;;5010266;28;20562;-68
2021/07/31 06:09:50;;;;;;;5.43;3.50;;;19.40;99.90;;;;;;5010330;28;20526;-68
2021/07/31 06:12:17;;;;;;;5.63;3.87;;;19.40;99.90;;;;;;5010405;28;20449;-68
2021/07/31 06:14:46;;;;;;;5.23;3.40;;;19.40;99.90;;;;;;5010346;28;20514;-68
2021/07/31 06:17:13;;;;;;;5.33;3.73;;;19.50;99.90;;;;;;5009468;28;20541;-67
2021/07/31 06:19:42;;;;;;;6.33;3.53;;;19.50;99.90;;;;;;5010181;28;20443;-68
2021/07/31 06:22:10;;;;;;;4.67;3.20;;;19.60;99.90;;;;;;5010360;28;20834;-67
2021/07/31 06:24:37;;;;;;;9.03;3.93;;;19.70;99.90;;;;;;5010300;28;20443;-67
2021/07/31 06:27:06;;;;;;;6.10;3.60;;;19.90;99.90;;;;;;5010063;28;20517;-68
2021/07/31 06:29:33;;;;;;;4.23;3.43;;;20.00;99.90;;;;;;5009803;28;20553;-68
2021/07/31 06:32:01;;;;;;;5.80;3.00;;;20.00;99.90;;;;;;5008522;28;20447;-68
2021/07/31 06:34:30;;;;;;;6.53;3.23;;;20.10;99.90;;;;;;5013050;28;20530;-70
2021/07/31 06:36:58;;;;;;;4.93;3.67;;;20.10;99.90;;;;;;5013860;28;21245;-69
2021/07/31 06:39:29;;;;;;;5.23;3.60;;;20.20;99.90;;;;;;5066880;28;20471;-68
2021/07/31 06:41:56;;;;;;;3.73;2.63;;;20.10;99.90;;;;;;5085087;28;20531;-68
2021/07/31 06:44:26;;;;;;;6.17;3.10;;;20.20;99.90;;;;;;5085443;28;20446;-68
2021/07/31 06:46:59;;;;;;;4.73;3.43;;;20.20;99.90;;;;;;4989269;28;20442;-69
2021/07/31 06:49:32;;;;;;;11.50;3.60;;;20.20;99.90;;;;;;4991670;28;20487;-68
2021/07/31 06:52:01;;;;;;;5.00;3.50;;;20.30;99.90;;;;;;4988933;28;20443;-69
2021/07/31 06:54:32;;;;;;;5.03;3.37;;;20.40;99.90;;;;;;4989434;28;20878;-68
2021/07/31 06:57:06;;;;;;;3.63;3.10;;;20.50;99.90;;;;;;4989882;28;20933;-68
2021/07/31 06:59:36;;;;;;;6.00;3.70;;;20.50;99.90;;;;;;4990549;28;20468;-68
2021/07/31 07:02:04;;;;;;;4.87;3.20;;;20.50;99.90;;;;;;4989273;28;20439;-69
2021/07/31 07:04:36;;;;;;;5.27;3.53;;;20.60;99.90;;;;;;4992697;28;20440;-69
2021/07/31 07:07:05;;;;;;;5.07;4.27;;;20.70;99.90;;;;;;5064844;28;20442;-67
2021/07/31 07:09:34;;;;;;;4.97;3.40;;;20.70;99.10;;;;;;5007801;28;20490;-68
2021/07/31 07:12:08;;;;;;;5.30;3.73;;;20.80;98.80;;;;;;4989275;28;20467;-68
2021/07/31 07:14:36;;;;;;;4.90;3.90;;;20.80;99.20;;;;;;4989784;28;20472;-69
2021/07/31 07:17:05;;;;;;;7.87;3.60;;;20.90;99.60;;;;;;4999792;28;20444;-68
2021/07/31 07:19:34;;;;;;;4.70;3.90;;;20.90;99.70;;;;;;5006675;28;20435;-68
2021/07/31 07:22:01;;;;;;;4.80;3.70;;;21.10;99.50;;;;;;5066257;28;20431;-68
2021/07/31 07:24:30;;;;;;;5.53;3.67;;;21.20;99.20;;;;;;5026944;28;20496;-68
2021/07/31 07:26:58;;;;;;;5.13;3.50;;;21.30;98.70;;;;;;5008852;28;20443;-68
2021/07/31 07:29:25;;;;;;;6.40;4.23;;;21.40;98.60;;;;;;5020249;28;20548;-69
2021/07/31 07:32:08;;;;;;;5.50;4.20;;;21.50;97.90;;;;;;4991424;28;20444;-68
2021/07/31 07:34:43;;;;;;;6.07;4.43;;;21.70;97.60;;;;;;4991358;28;20483;-70
2021/07/31 07:37:15;;;;;;;5.67;3.60;;;21.90;97.70;;;;;;5070638;28;20518;-68
2021/07/31 07:39:44;;;;;;;6.60;5.10;;;22.20;97.70;;;;;;5025949;28;20514;-69
2021/07/31 07:42:12;;;;;;;7.57;5.20;;;22.50;97.80;;;;;;5008068;28;20455;-68
2021/07/31 07:44:43;;;;;;;4.87;4.00;;;22.70;97.00;;;;;;5008177;28;20952;-68
2021/07/31 07:47:13;;;;;;;5.53;4.23;;;22.90;96.10;;;;;;4997418;28;20496;-67
2021/07/31 07:49:40;;;;;;;4.93;3.80;;;23.10;94.50;;;;;;4994226;28;20726;-69
2021/07/31 07:52:08;;;;;;;5.90;3.80;;;23.10;94.00;;;;;;5071618;28;20458;-69
2021/07/31 07:54:38;;;;;;;5.90;4.07;;;23.30;94.90;;;;;;5057660;28;20449;-69
2021/07/31 07:57:12;;;;;;;4.90;3.50;;;23.40;94.60;;;;;;5008907;28;20621;-70
2021/07/31 07:59:50;;;;;;;4.53;4.03;;;23.60;94.00;;;;;;5034900;28;20436;-68
2021/07/31 08:02:23;;;;;;;4.83;3.80;;;23.70;93.10;;;;;;4995650;28;20432;-70
2021/07/31 08:04:51;;;;;;;4.30;3.80;;;23.80;92.40;;;;;;4994924;28;20439;-68
2021/07/31 08:07:21;;;;;;;5.53;3.87;;;24.00;93.10;;;;;;4991282;28;20517;-68
2021/07/31 08:09:54;;;;;;;5.43;4.53;;;24.10;93.30;;;;;;4992027;28;20571;-69
2021/07/31 08:12:28;;;;;;;4.10;3.30;;;24.40;94.10;;;;;;5046870;28;20435;-68
2021/07/31 08:14:58;;;;;;;3.77;3.10;;;24.50;93.10;;;;;;5003265;28;20442;-72
2021/07/31 08:17:26;;;;;;;6.27;3.87;;;24.50;92.40;;;;;;5032908;28;20793;-68
2021/07/31 08:19:54;;;;;;;5.50;4.27;;;24.50;91.50;;;;;;4991244;28;20457;-69
2021/07/31 08:22:23;;;;;;;4.70;3.67;;;24.50;90.70;;;;;;4991951;28;20447;-68
2021/07/31 08:24:52;;;;;;;5.33;3.33;;;24.50;91.90;;;;;;5008542;28;20529;-68
2021/07/31 08:27:20;;;;;;;8.10;6.40;;;24.50;89.30;;;;;;5009603;28;20530;-68
2021/07/31 08:29:48;;;;;;;7.47;6.50;;;24.40;90.30;;;;;;5008585;28;20979;-68
2021/07/31 08:32:15;;;;;;;4.20;3.00;;;24.40;91.20;;;;;;4990934;28;20531;-69
2021/07/31 08:34:43;;;;;;;5.73;3.40;;;24.40;90.30;;;;;;5062683;28;20472;-71
2021/07/31 08:37:11;;;;;;;4.83;3.40;;;24.30;86.50;;;;;;5072120;28;20565;-69
2021/07/31 08:39:39;;;;;;;3.40;2.70;;;24.30;87.00;;;;;;5008214;28;20447;-68
2021/07/31 08:42:06;;;;;;;4.50;3.10;;;24.20;87.70;;;;;;5008311;28;20990;-69
2021/07/31 08:44:35;;;;;;;3.33;2.57;;;24.20;87.50;;;;;;5009179;28;20528;-68
2021/07/31 08:47:05;;;;;;;4.37;3.30;;;24.10;86.90;;;;;;5008931;28;20453;-69
2021/07/31 08:49:34;;;;;;;8.97;6.70;;;24.00;85.60;;;;;;4999723;28;20483;-69
2021/07/31 08:52:07;;;;;;;6.10;5.30;;;23.90;86.70;;;;;;5066335;28;20454;-70
2021/07/31 08:54:38;;;;;;;9.53;7.43;;;23.80;88.10;;;;;;5001314;28;20440;-68
2021/07/31 08:57:06;;;;;;;5.50;3.47;;;23.70;88.80;;;;;;5021824;28;20451;-68
2021/07/31 08:59:34;;;;;;;4.10;3.07;;;23.60;88.50;;;;;;5040812;28;20998;-72
2021/07/31 09:02:01;;;;;;;4.60;2.93;;;23.60;89.60;;;;;;4991978;28;21524;-68
2021/07/31 09:04:29;;;;;;;3.80;2.90;;;23.50;88.40;;;;;;5005431;28;20477;-68
2021/07/31 09:06:57;;;;;;;4.13;2.77;;;23.50;89.80;;;;;;5007403;28;20527;-70
2021/07/31 09:09:25;;;;;;;4.27;2.80;;;23.40;90.10;;;;;;4998955;28;20999;-68
2021/07/31 09:12:00;;;;;;;5.30;3.10;;;23.40;90.30;;;;;;4997376;28;20563;-68
2021/07/31 09:14:46;;;;;;;5.60;2.90;;;23.30;89.20;;;;;;5007671;28;20439;-70
2021/07/31 09:17:33;;;;;;;3.47;2.80;;;23.30;89.00;;;;;;5002104;28;20447;-68
2021/07/31 09:20:01;;;;;;;4.70;2.70;;;23.20;87.90;;;;;;5007146;28;20449;-68
2021/07/31 09:22:28;;;;;;;5.20;2.83;;;23.20;88.20;;;;;;5029168;28;20526;-67
2021/07/31 09:25:09;;;;;;;4.00;2.93;;;23.20;88.70;;;;;;5006366;28;20547;-68
2021/07/31 09:27:36;;;;;;;4.20;3.37;;;23.10;89.80;;;;;;5007097;28;20979;-68
2021/07/31 09:30:09;;;;;;;4.03;2.87;;;23.10;90.10;;;;;;4989937;28;20886;-71
2021/07/31 09:32:42;;;;;;;3.43;2.53;;;23.10;90.10;;;;;;4990122;28;20444;-68
2021/07/31 09:35:25;;;;;;;4.10;2.73;;;23.00;90.10;;;;;;4990885;28;20432;-67
2021/07/31 09:38:01;;;;;;;6.53;3.63;;;23.00;90.70;;;;;;4998663;28;20447;-69
2021/07/31 09:40:32;;;;;;;5.50;4.00;;;23.00;90.80;;;;;;5007152;28;20443;-68
2021/07/31 09:43:13;;;;;;;5.27;3.30;;;23.10;90.70;;;;;;5007827;28;20451;-68
2021/07/31 09:45:41;;;;;;;3.63;2.47;;;23.10;89.00;;;;;;5010499;28;20853;-68
2021/07/31 09:48:09;;;;;;;3.07;2.23;;;23.10;88.70;;;;;;5007863;28;20443;-68
2021/07/31 09:50:40;;;;;;;3.77;2.40;;;23.10;89.40;;;;;;5007407;28;20435;-68
2021/07/31 09:53:11;;;;;;;4.00;2.53;;;23.20;90.30;;;;;;5006621;28;20431;-68
2021/07/31 09:55:43;;;;;;;3.67;2.40;;;23.20;89.40;;;;;;5007798;28;20495;-68
2021/07/31 09:58:14;;;;;;;3.57;2.27;;;23.30;88.20;;;;;;5008194;28;20521;-68
2021/07/31 10:00:43;;;;;;;3.00;2.30;;;23.30;88.80;;;;;;5010607;28;20939;-68
2021/07/31 10:03:16;;;;;;;3.13;2.30;;;23.40;88.30;;;;;;5007659;28;20439;-67
2021/07/31 10:05:46;;;;;;;3.57;2.30;;;23.50;87.70;;;;;;5003708;28;20438;-67
2021/07/31 10:08:13;;;;;;;3.20;2.00;;;23.50;86.60;;;;;;5065048;28;20428;-68
2021/07/31 10:10:43;;;;;;;2.63;2.03;;;23.60;86.50;;;;;;5021609;28;20449;-67
2021/07/31 10:13:11;;;;;;;6.67;2.60;;;23.80;85.40;;;;;;5023989;28;20490;-68
2021/07/31 10:15:39;;;;;;;3.50;2.63;;;24.10;84.00;;;;;;4994064;28;20435;-68
2021/07/31 10:18:11;;;;;;;4.50;2.47;;;24.20;83.60;;;;;;4999002;28;20527;-67
2021/07/31 10:20:40;;;;;;;4.53;2.63;;;24.50;82.50;;;;;;5007468;28;20469;-70
2021/07/31 10:23:09;;;;;;;3.53;2.20;;;24.70;80.80;;;;;;5008553;28;20475;-68
2021/07/31 10:25:36;;;;;;;3.83;2.43;;;25.00;80.60;;;;;;5007083;28;20522;-68
2021/07/31 10:28:25;;;;;;;3.80;2.27;;;25.30;79.90;;;;;;5003999;28;20539;-68
2021/07/31 10:31:30;;;;;;;7.23;2.37;;;25.60;80.10;;;;;;5073014;28;20452;-68
2021/07/31 10:33:57;;;;;;;2.90;2.33;;;26.00;81.30;;;;;;4989769;28;20432;-68
2021/07/31 10:36:38;;;;;;;3.77;2.00;;;26.50;79.50;;;;;;5029089;28;20847;-68
2021/07/31 10:39:38;;;;;;;5.57;2.43;;;26.70;75.40;;;;;;5010899;28;20475;-68
2021/07/31 10:42:07;;;;;;;3.13;1.87;;;26.90;72.90;;;;;;4999404;28;20834;-70
2021/07/31 10:44:34;;;;;;;2.97;2.10;;;27.00;71.10;;;;;;4990338;28;20948;-69
2021/07/31 10:47:38;;;;;;;3.10;2.23;;;27.00;68.40;;;;;;4992083;28;20540;-69
2021/07/31 10:50:36;;;;;;;3.73;2.40;;;27.10;67.90;;;;;;4989654;28;21091;-68
2021/07/31 10:53:10;;;;;;;3.20;2.07;;;27.20;66.80;;;;;;5007618;28;20483;-69
2021/07/31 10:56:19;;;;;;;4.73;2.57;;;27.20;67.10;;;;;;5009041;28;20492;-68
2021/07/31 10:59:16;;;;;;;5.50;3.00;;;27.10;65.10;;;;;;4997410;28;20838;-68
2021/07/31 11:01:45;;;;;;;3.30;1.80;;;26.90;67.00;;;;;;4993803;28;20435;-68
2021/07/31 11:04:46;;;;;;;4.03;2.07;;;26.70;65.30;;;;;;4993207;28;21247;-68
2021/07/31 11:07:13;;;;;;;5.00;2.50;;;26.40;65.20;;;;;;4995589;28;20444;-68
2021/07/31 11:09:40;;;;;;;3.50;2.30;;;26.30;68.40;;;;;;4992352;28;20515;-68
2021/07/31 11:12:41;;;;;;;5.83;2.30;;;26.10;67.30;;;;;;5006900;28;20493;-68
2021/07/31 11:15:10;;;;;;;3.90;2.20;;;26.00;65.60;;;;;;5011060;28;20928;-68
2021/07/31 11:17:39;;;;;;;3.20;1.90;;;25.80;66.50;;;;;;5009998;28;20525;-68
2021/07/31 11:20:26;;;;;;;4.30;2.20;;;25.60;66.10;;;;;;5009710;28;20438;-68
2021/07/31 11:23:03;;;;;;;5.20;2.47;;;25.40;67.00;;;;;;5009700;28;20433;-68
2021/07/31 11:25:36;;;;;;;6.33;2.40;;;25.30;67.40;;;;;;5009834;28;20442;-67
2021/07/31 11:28:08;;;;;;;3.30;2.07;;;25.20;67.00;;;;;;4997380;28;20527;-68
2021/07/31 11:33:42;;;;;;;7.07;2.67;;;25.20;67.70;;;;;;5114975;27;20537;-67
2021/07/31 11:36:14;;;;;;;5.83;3.37;;;25.00;68.20;;;;;;5110304;28;20519;-67
2021/07/31 11:38:43;;;;;;;7.60;4.10;;;24.90;67.50;;;;;;5128343;27;20521;-67
2021/07/31 11:41:12;;;;;;;4.83;3.03;;;24.80;68.60;;;;;;5128640;27;20477;-67
2021/07/31 11:43:50;;;;;;;3.97;3.10;;;24.80;70.40;;;;;;5128341;27;20529;-68
2021/07/31 11:46:35;;;;;;;2.83;2.00;;;24.70;69.80;;;;;;5128339;27;20465;-67
2021/07/31 11:49:06;;;;;;;3.70;1.90;;;24.70;70.80;;;;;;5114600;28;20838;-67
2021/07/31 11:51:40;;;;;;;3.50;2.00;;;24.60;69.80;;;;;;5112509;27;21007;-67
2021/07/31 11:54:08;;;;;;;5.43;2.40;;;24.60;69.10;;;;;;5110793;27;20463;-68
2021/07/31 11:56:40;;;;;;;3.20;2.43;;;24.60;70.30;;;;;;5112049;27;20815;-67
2021/07/31 11:59:14;;;;;;;4.10;1.80;;;24.60;70.30;;;;;;5121755;27;20946;-67
2021/07/31 12:01:48;;;;;;;2.70;2.20;;;24.60;71.30;;;;;;5110873;27;20470;-68
2021/07/31 12:04:16;;;;;;;5.07;2.53;;;24.70;71.80;;;;;;5109636;28;20527;-67
2021/07/31 12:06:46;;;;;;;4.20;2.53;;;24.70;70.90;;;;;;5121671;27;20446;-67
2021/07/31 12:09:28;;;;;;;4.70;2.73;;;24.70;70.30;;;;;;5117311;27;20463;-67
2021/07/31 12:11:57;;;;;;;3.10;2.00;;;24.90;69.80;;;;;;5126715;28;20491;-68
2021/07/31 12:14:39;;;;;;;2.97;2.10;;;25.00;70.20;;;;;;5114719;27;20770;-72
2021/07/31 12:17:28;;;;;;;3.47;2.10;;;25.10;70.60;;;;;;5111957;27;20510;-68
2021/07/31 12:19:59;;;;;;;3.20;2.00;;;25.30;70.90;;;;;;5127869;27;20492;-67
2021/07/31 12:22:29;;;;;;;3.70;1.97;;;25.20;67.00;;;;;;5112384;27;20430;-67
2021/07/31 12:25:16;;;;;;;2.73;2.10;;;25.30;67.90;;;;;;5107820;28;20473;-68
2021/07/31 12:28:36;;;;;;;3.80;1.90;;;25.30;68.40;;;;;;5127149;27;20440;-70
2021/07/31 12:31:25;;;;;;;6.50;4.57;;;25.20;70.40;;;;;;5108712;28;20454;-68
2021/07/31 12:34:10;;;;;;;4.40;2.70;;;25.20;69.10;;;;;;5115718;27;20937;-71
2021/07/31 12:37:03;;;;;;;4.53;2.47;;;25.10;67.10;;;;;;5125818;28;20944;-68
2021/07/31 12:39:47;;;;;;;4.13;2.17;;;25.10;68.10;;;;;;5069366;27;20467;-68
2021/07/31 12:42:27;;;;;;;2.80;1.67;;;25.00;69.70;;;;;;5114160;27;20439;-68
2021/07/31 12:45:11;;;;;;;5.80;2.17;;;25.00;70.40;;;;;;5095593;27;20495;-68
2021/07/31 12:47:45;;;;;;;2.90;1.90;;;25.00;68.10;;;;;;5095974;28;20425;-68
2021/07/31 12:50:34;;;;;;;2.60;1.80;;;25.00;68.40;;;;;;5102267;27;20468;-68
2021/07/31 12:53:28;;;;;;;3.03;2.40;;;25.10;70.70;;;;;;5108916;27;20483;-68
2021/07/31 12:56:15;;;;;;;8.03;2.20;;;25.10;66.10;;;;;;5109571;28;20447;-70
2021/07/31 12:58:46;;;;;;;3.60;2.50;;;25.20;66.50;;;;;;5112711;27;20938;-68
2021/07/31 13:01:47;;;;;;;4.63;2.80;;;25.20;65.60;;;;;;5113363;28;20445;-68
2021/07/31 13:04:17;;;;;;;4.57;3.00;;;25.30;68.00;;;;;;5111278;28;20849;-68
2021/07/31 13:06:52;;;;;;;4.80;3.10;;;25.40;68.10;;;;;;5112402;28;20911;-68
2021/07/31 13:09:35;;;;;;;4.60;2.93;;;25.60;69.00;;;;;;5113003;28;20466;-67
2021/07/31 13:12:17;;;;;;;6.17;3.63;;;25.80;66.00;;;;;;5108808;28;20476;-68
2021/07/31 13:15:00;;;;;;;5.03;3.20;;;25.90;64.40;;;;;;5113108;28;20444;-68